Home   Weather   Valdivienne   Past weeks
Flag for France

Past Weather in Valdivienne, Vienne, France — Yesterday and Last 2 Weeks

Currently: 45 °F. Low clouds. (Weather station: Poitiers Airport, France). See more current weather

Past Weather in Valdivienne — Graph

°F

Valdivienne Temperature Yesterday

Maximum temperature yesterday: 54 °F (at 5:30 pm)
Minimum temperature yesterday: 34 °F (at 6:30 am)
Average temperature yesterday: 44 °F

High & Low Weather Summary for the Past Weeks

 TemperatureHumidityPressure
High79 °F (Apr 13, 2:00 pm)100% (Apr 10, 8:00 am)30.57 "Hg (Apr 10, 8:00 am)
Low34 °F (Apr 19, 7:00 am)41% (Apr 18, 5:00 pm)30.01 "Hg (Apr 17, 5:30 pm)
Average52 °F72%30.24 "Hg
* Reported Apr 9 7:00 am — Apr 24 7:30 am, Valdivienne. Weather by CustomWeather, © 2024

Note: Actual official high and low records may vary slightly from our data, if they occured in-between our weather recording intervals... More about our weather records

Valdivienne Weather History for the Previous 24 Hours

Scroll right to see more
 ConditionsComfort  
Time TempWeatherWind HumidityBarometerVisibility
7:30 am
Wed, Apr 24
45 °FMostly cloudy.7 mph93%30.07 "HgN/A
7:00 am45 °FCloudy.8 mph93%30.07 "HgN/A
6:30 am45 °FMostly cloudy.7 mph93%30.07 "HgN/A
6:00 am45 °FOvercast.7 mph93%30.07 "HgN/A
5:30 am45 °FDrizzle. Overcast.7 mph93%30.09 "HgN/A
5:00 am45 °FMostly cloudy.5 mph93%30.09 "HgN/A
4:30 am45 °FMostly cloudy.5 mph87%30.09 "HgN/A
4:00 am43 °FOvercast.5 mph93%30.09 "HgN/A
3:30 am43 °FClear.5 mph87%30.09 "Hg10 mi
3:00 am41 °FClear.5 mph87%30.09 "Hg10 mi
2:30 am41 °FClear.3 mph87%30.09 "Hg10 mi
2:00 am41 °FClear.6 mph87%30.12 "Hg10 mi
1:30 am41 °FClear.6 mph87%30.12 "Hg10 mi
1:00 am41 °FClear.6 mph81%30.12 "Hg10 mi
12:30 am41 °FClear.6 mph81%30.12 "Hg10 mi
12:00 am43 °FClear.5 mph76%30.12 "Hg10 mi
11:30 pm
Tue, Apr 23
43 °FClear.5 mph76%30.12 "Hg10 mi
11:00 pm43 °FClear.7 mph71%30.15 "Hg10 mi
10:30 pm43 °FClear.6 mph66%30.12 "Hg10 mi
10:00 pm41 °FClear.2 mph66%30.12 "Hg10 mi
9:30 pm45 °FClear.2 mph57%30.12 "Hg10 mi
9:00 pm48 °FClear.3 mph46%30.12 "Hg10 mi
8:30 pm48 °FSunny.6 mph50%30.12 "Hg10 mi
8:00 pm52 °FSunny.8 mph41%30.09 "Hg10 mi
7:00 pm52 °FPassing clouds.9 mph44%30.12 "HgN/A
6:30 pm52 °FPassing clouds.12 mph47%30.12 "HgN/A
6:00 pm52 °FPassing clouds.14 mph41%30.12 "HgN/A
5:30 pm54 °FPassing clouds.14 mph41%30.12 "HgN/A
5:00 pm52 °FPassing clouds.14 mph41%30.12 "HgN/A
4:30 pm52 °FSunny.12 mph44%30.12 "Hg10 mi
4:00 pm52 °FPassing clouds.13 mph44%30.12 "HgN/A
3:00 pm50 °FSunny.15 mph47%30.12 "Hg10 mi
2:30 pm52 °FSunny.15 mph41%30.12 "Hg10 mi
2:00 pm52 °FPartly sunny.13 mph41%30.12 "HgN/A
1:30 pm50 °FBroken clouds.13 mph58%30.15 "HgN/A
1:00 pm50 °FBroken clouds.15 mph50%30.15 "HgN/A
12:30 pm50 °FPassing clouds.14 mph54%30.15 "HgN/A
12:00 pm48 °FScattered clouds.14 mph62%30.15 "HgN/A
11:30 am46 °FPartly sunny.13 mph62%30.15 "HgN/A
11:00 am45 °FPassing clouds.12 mph71%30.15 "HgN/A
10:30 am45 °FSunny.9 mph71%30.15 "Hg10 mi
10:00 am43 °FSunny.9 mph71%30.15 "Hg10 mi
9:30 am41 °FPassing clouds.9 mph76%30.15 "HgN/A
9:00 am41 °FPassing clouds.7 mph76%30.15 "HgN/A
8:30 am37 °FPassing clouds.5 mph81%30.15 "HgN/A
8:00 am36 °FSunny.6 mph87%30.15 "Hg10 mi
Weather by CustomWeather, © 2024

See weather overview